createdAt,value
2018-02-27T00:00:55.022Z,8.37
2018-02-27T00:03:22.447Z,4.53
2018-02-27T00:05:49.965Z,4.10
2018-02-27T00:08:17.413Z,3.77
2018-02-27T00:10:44.825Z,6.40
2018-02-27T00:13:12.349Z,2.10
2018-02-27T00:15:39.783Z,9.43
2018-02-27T00:18:07.252Z,4.43
2018-02-27T00:20:34.714Z,1.87
2018-02-27T00:23:02.154Z,5.20
2018-02-27T00:25:29.562Z,4.17
2018-02-27T00:27:57.095Z,4.47
2018-02-27T00:30:24.525Z,4.53
2018-02-27T00:32:51.964Z,3.10
2018-02-27T00:35:19.521Z,2.40
2018-02-27T00:37:46.928Z,1.47
2018-02-27T00:40:14.440Z,4.17
2018-02-27T00:42:41.993Z,3.40
2018-02-27T00:45:09.400Z,6.00
2018-02-27T00:47:37.011Z,6.30
2018-02-27T00:50:04.472Z,1.87
2018-02-27T00:52:31.905Z,3.07
2018-02-27T00:54:59.384Z,1.87
2018-02-27T00:57:26.797Z,2.63
2018-02-27T00:59:55.003Z,2.60
2018-02-27T01:02:22.420Z,1.50
2018-02-27T01:04:49.908Z,2.03
2018-02-27T01:07:17.488Z,2.33
2018-02-27T01:09:44.908Z,2.73
2018-02-27T01:12:13.128Z,7.37
2018-02-27T01:14:40.588Z,2.80
2018-02-27T01:17:08.017Z,1.37
2018-02-27T01:19:35.563Z,2.77
2018-02-27T01:22:03.097Z,1.43
2018-02-27T01:24:30.548Z,2.17
2018-02-27T01:26:57.968Z,6.07
2018-02-27T01:29:27.047Z,3.03
2018-02-27T01:31:54.634Z,4.37
2018-02-27T01:34:22.840Z,2.20
2018-02-27T01:36:50.263Z,2.40
2018-02-27T01:39:18.463Z,1.73
2018-02-27T01:41:45.893Z,2.03
2018-02-27T01:44:14.094Z,1.83
2018-02-27T01:46:41.560Z,2.13
2018-02-27T01:49:09.005Z,2.63
2018-02-27T01:51:36.428Z,2.53
2018-02-27T01:54:04.644Z,1.90
2018-02-27T01:56:32.105Z,1.73
2018-02-27T01:58:59.532Z,6.87
2018-02-27T02:01:27.021Z,2.53
2018-02-27T02:03:54.469Z,2.37
2018-02-27T02:06:21.926Z,1.80
2018-02-27T02:08:49.487Z,1.77
2018-02-27T02:11:16.906Z,1.63
2018-02-27T02:13:45.097Z,1.30
2018-02-27T02:16:12.520Z,1.70
2018-02-27T02:18:40.752Z,3.07
2018-02-27T02:21:08.176Z,3.53
2018-02-27T02:23:36.482Z,3.67
2018-02-27T02:26:03.899Z,1.30
2018-02-27T02:28:32.113Z,2.97
2018-02-27T02:30:59.537Z,4.00
2018-02-27T02:33:27.084Z,3.83
2018-02-27T02:35:54.560Z,2.53
2018-02-27T02:38:21.991Z,2.10
2018-02-27T02:40:49.619Z,3.03
2018-02-27T02:43:17.036Z,3.20
2018-02-27T02:45:45.251Z,5.63
2018-02-27T02:48:12.705Z,1.77
2018-02-27T02:50:40.173Z,4.07
2018-02-27T02:53:07.620Z,4.93
2018-02-27T02:55:35.060Z,3.07
2018-02-27T02:58:02.636Z,8.03
2018-02-27T03:00:30.045Z,4.07
2018-02-27T03:02:57.480Z,4.07
2018-02-27T03:05:24.909Z,3.83
2018-02-27T03:07:52.340Z,6.13
2018-02-27T03:10:19.821Z,5.63
2018-02-27T03:12:47.230Z,2.60
2018-02-27T03:15:14.741Z,3.27
2018-02-27T03:17:42.196Z,4.43
2018-02-27T03:20:09.652Z,3.10
2018-02-27T03:22:37.120Z,3.00
2018-02-27T03:25:04.676Z,6.17
2018-02-27T03:27:32.108Z,4.13
2018-02-27T03:29:59.585Z,5.13
2018-02-27T03:32:27.142Z,3.73
2018-02-27T03:34:54.646Z,4.63
2018-02-27T03:37:22.166Z,8.47
2018-02-27T03:39:49.612Z,5.53
2018-02-27T03:42:17.035Z,5.33
2018-02-27T03:44:45.260Z,3.83
2018-02-27T03:47:12.697Z,5.33
2018-02-27T03:49:40.157Z,5.77
2018-02-27T03:52:07.719Z,7.73
2018-02-27T03:54:35.132Z,7.90
2018-02-27T03:57:03.363Z,4.47
2018-02-27T03:59:30.806Z,3.83
2018-02-27T04:01:58.238Z,4.23
2018-02-27T04:04:26.424Z,5.03
2018-02-27T04:06:53.909Z,5.00
2018-02-27T04:09:21.332Z,3.00
2018-02-27T04:11:48.759Z,4.87
2018-02-27T04:14:16.188Z,3.63
2018-02-27T04:16:43.752Z,7.53
2018-02-27T04:19:11.185Z,7.97
2018-02-27T04:21:38.644Z,5.90
2018-02-27T04:24:06.093Z,3.43
2018-02-27T04:26:33.521Z,3.70
2018-02-27T04:29:00.957Z,7.57
2018-02-27T04:31:28.429Z,5.97
2018-02-27T04:33:55.833Z,5.17
2018-02-27T04:36:23.352Z,3.33
2018-02-27T04:38:50.805Z,4.97
2018-02-27T04:41:18.260Z,3.80
2018-02-27T04:43:45.696Z,10.10
2018-02-27T04:46:13.140Z,4.30
2018-02-27T04:48:41.366Z,6.03
2018-02-27T04:51:08.805Z,5.40
2018-02-27T04:53:36.265Z,4.40
2018-02-27T04:56:03.721Z,4.50
2018-02-27T04:58:31.896Z,3.80
2018-02-27T05:00:59.356Z,6.53
2018-02-27T05:03:26.785Z,5.33
2018-02-27T05:05:54.264Z,3.53
2018-02-27T05:08:21.716Z,5.57
2018-02-27T05:10:49.136Z,5.03
2018-02-27T05:13:17.332Z,6.47
2018-02-27T05:15:44.805Z,5.13
2018-02-27T05:18:12.220Z,5.13
2018-02-27T05:20:39.824Z,3.70
2018-02-27T05:23:07.334Z,5.20
2018-02-27T05:25:34.699Z,4.80
2018-02-27T05:28:02.897Z,5.23
2018-02-27T05:30:30.333Z,4.73
2018-02-27T05:32:57.765Z,5.10
2018-02-27T05:35:25.185Z,7.17
2018-02-27T05:37:52.730Z,4.67
2018-02-27T05:40:20.132Z,7.13
2018-02-27T05:42:48.364Z,8.57
2018-02-27T05:45:15.818Z,17.40
2018-02-27T05:47:43.235Z,21.27
2018-02-27T05:50:11.451Z,6.53
2018-02-27T05:52:38.869Z,6.73
2018-02-27T05:55:07.065Z,6.63
2018-02-27T05:57:34.588Z,7.60
2018-02-27T06:00:02.108Z,19.67
2018-02-27T06:02:29.656Z,34.37
2018-02-27T06:04:57.167Z,21.87
2018-02-27T06:07:24.578Z,9.60
2018-02-27T06:09:52.008Z,17.30
2018-02-27T06:12:19.492Z,24.53
2018-02-27T06:14:46.941Z,12.50
2018-02-27T06:17:14.361Z,9.20
2018-02-27T06:19:42.583Z,12.47
2018-02-27T06:22:10.012Z,13.57
2018-02-27T06:24:37.492Z,19.13
2018-02-27T06:27:04.921Z,10.37
2018-02-27T06:29:32.362Z,6.57
2018-02-27T06:32:00.576Z,8.63
2018-02-27T06:34:28.135Z,7.83
2018-02-27T06:36:55.601Z,7.10
2018-02-27T06:39:23.151Z,10.23
2018-02-27T06:41:50.553Z,14.40
2018-02-27T06:44:18.168Z,7.70
2018-02-27T06:46:45.577Z,8.10
2018-02-27T06:49:13.088Z,8.50
2018-02-27T06:51:40.544Z,6.43
2018-02-27T06:54:07.981Z,12.53
2018-02-27T06:56:35.408Z,8.70
2018-02-27T06:59:03.616Z,7.23
2018-02-27T07:01:31.094Z,7.03
2018-02-27T07:03:58.542Z,13.13
2018-02-27T07:06:25.956Z,7.43
2018-02-27T07:08:54.152Z,7.27
2018-02-27T07:11:21.579Z,7.47
2018-02-27T07:13:49.093Z,7.73
2018-02-27T07:16:16.526Z,8.80
2018-02-27T07:18:44.008Z,5.87
2018-02-27T07:21:11.475Z,9.23
2018-02-27T07:23:38.897Z,9.23
2018-02-27T07:26:06.374Z,12.03
2018-02-27T07:28:33.788Z,3.87
2018-02-27T07:31:02.022Z,9.40
2018-02-27T07:33:29.547Z,8.37
2018-02-27T07:35:57.041Z,11.73
2018-02-27T07:38:24.460Z,7.93
2018-02-27T07:40:51.893Z,12.60
2018-02-27T07:43:19.366Z,10.57
2018-02-27T07:45:46.773Z,7.60
2018-02-27T07:48:14.236Z,10.37
2018-02-27T07:50:41.648Z,10.03
2018-02-27T07:53:09.081Z,13.30
2018-02-27T07:55:36.555Z,13.83
2018-02-27T07:58:04.012Z,13.80
2018-02-27T08:00:31.444Z,15.93
2018-02-27T08:02:58.922Z,14.33
2018-02-27T08:05:26.384Z,9.57
2018-02-27T08:07:53.813Z,13.17
2018-02-27T08:10:21.298Z,11.33
2018-02-27T08:12:48.729Z,12.60
2018-02-27T08:15:16.165Z,9.30
2018-02-27T08:17:44.384Z,12.07
2018-02-27T08:20:11.806Z,12.33
2018-02-27T08:22:40.012Z,11.97
2018-02-27T08:25:07.468Z,13.43
2018-02-27T08:27:34.895Z,14.33
2018-02-27T08:30:03.088Z,10.53
2018-02-27T08:32:30.556Z,19.60
2018-02-27T08:34:58.020Z,11.73
2018-02-27T08:37:25.481Z,15.80
2018-02-27T08:39:52.919Z,11.20
2018-02-27T08:42:20.392Z,10.87
2018-02-27T08:44:47.852Z,8.97
2018-02-27T08:47:15.404Z,9.77
2018-02-27T08:49:42.864Z,9.50
2018-02-27T08:52:10.324Z,11.87
2018-02-27T08:54:37.780Z,8.60
2018-02-27T08:57:05.334Z,13.07
2018-02-27T08:59:32.797Z,8.63
2018-02-27T09:02:00.228Z,9.63
2018-02-27T09:04:27.779Z,9.10
2018-02-27T09:06:55.243Z,11.87
2018-02-27T09:09:22.792Z,12.33
2018-02-27T09:11:50.212Z,10.30
2018-02-27T09:14:18.464Z,12.67
2018-02-27T09:16:45.991Z,12.00
2018-02-27T09:19:13.604Z,10.83
2018-02-27T09:21:41.015Z,13.07
2018-02-27T09:24:08.456Z,9.43
2018-02-27T09:26:35.898Z,10.53
2018-02-27T09:29:03.372Z,10.77
2018-02-27T09:31:30.777Z,10.23
2018-02-27T09:33:58.226Z,11.57
2018-02-27T09:36:25.660Z,7.70
2018-02-27T09:38:53.198Z,8.77
2018-02-27T09:41:20.680Z,7.73
2018-02-27T09:43:48.214Z,7.73
2018-02-27T09:46:15.630Z,15.13
2018-02-27T09:48:43.845Z,12.10
2018-02-27T09:51:11.263Z,8.23
2018-02-27T09:53:39.477Z,12.70
2018-02-27T09:56:06.900Z,15.03
2018-02-27T09:58:35.092Z,11.33
2018-02-27T10:01:02.525Z,27.57
2018-02-27T10:03:30.944Z,22.20
2018-02-27T10:05:58.355Z,11.73
2018-02-27T10:08:25.798Z,28.87
2018-02-27T10:10:53.233Z,24.27
2018-02-27T10:13:20.673Z,14.23
2018-02-27T10:15:48.339Z,27.53
2018-02-27T10:18:15.788Z,37.40
2018-02-27T10:20:43.247Z,10.93
2018-02-27T10:23:10.663Z,7.10
2018-02-27T10:25:38.979Z,19.87
2018-02-27T10:28:06.382Z,7.17
2018-02-27T10:30:33.893Z,5.57
2018-02-27T10:33:01.356Z,6.50
2018-02-27T10:35:28.794Z,7.60
2018-02-27T10:37:56.324Z,10.33
2018-02-27T10:40:24.548Z,11.90
2018-02-27T10:42:51.999Z,7.30
2018-02-27T10:45:19.466Z,7.20
2018-02-27T10:47:46.912Z,7.30
2018-02-27T10:50:14.383Z,10.37
2018-02-27T10:52:41.808Z,7.87
2018-02-27T10:55:09.260Z,8.70
2018-02-27T10:57:37.566Z,7.10
2018-02-27T11:00:05.025Z,5.93
2018-02-27T11:02:32.491Z,5.03
2018-02-27T11:05:00.035Z,6.37
2018-02-27T11:07:27.517Z,11.20
2018-02-27T11:09:54.988Z,5.47
2018-02-27T11:12:22.611Z,6.07
2018-02-27T11:14:50.074Z,5.87
2018-02-27T11:17:17.526Z,5.87
2018-02-27T11:19:44.997Z,5.27
2018-02-27T11:22:12.453Z,5.97
2018-02-27T11:24:39.883Z,6.33
2018-02-27T11:27:07.301Z,8.47
2018-02-27T11:29:34.741Z,6.87
2018-02-27T11:32:02.169Z,6.43
2018-02-27T11:34:29.628Z,4.63
2018-02-27T11:36:57.068Z,3.90
2018-02-27T11:39:24.556Z,5.23
2018-02-27T11:41:51.995Z,6.53
2018-02-27T11:44:19.461Z,4.83
2018-02-27T11:46:46.884Z,5.03
2018-02-27T11:49:14.373Z,4.20
2018-02-27T11:51:41.826Z,4.60
2018-02-27T11:54:09.252Z,5.80
2018-02-27T11:56:37.560Z,3.63
2018-02-27T11:59:04.960Z,4.97
2018-02-27T12:01:32.384Z,4.03
2018-02-27T12:03:59.814Z,6.90
2018-02-27T12:06:27.288Z,6.70
2018-02-27T12:08:54.741Z,5.00
2018-02-27T12:11:22.200Z,5.53
2018-02-27T12:13:49.660Z,4.30
2018-02-27T12:16:17.112Z,3.83
2018-02-27T12:18:44.579Z,4.17
2018-02-27T12:21:12.009Z,4.40
2018-02-27T12:23:39.490Z,4.33
2018-02-27T12:26:06.906Z,3.93
2018-02-27T12:28:35.121Z,6.10
2018-02-27T12:31:02.558Z,5.13
2018-02-27T12:33:30.055Z,3.77
2018-02-27T12:35:57.481Z,3.50
2018-02-27T12:38:24.976Z,3.27
2018-02-27T12:40:52.509Z,3.10
2018-02-27T12:43:19.960Z,3.40
2018-02-27T12:45:47.416Z,4.50
2018-02-27T12:48:14.824Z,3.90
2018-02-27T12:50:42.336Z,5.53
2018-02-27T12:53:09.790Z,4.40
2018-02-27T12:55:37.246Z,4.73
2018-02-27T12:58:04.676Z,4.60
2018-02-27T13:00:32.881Z,5.37
2018-02-27T13:03:00.335Z,4.33
2018-02-27T13:05:27.807Z,6.63
2018-02-27T13:07:55.251Z,3.97
2018-02-27T13:10:22.809Z,4.13
2018-02-27T13:12:50.209Z,6.40
2018-02-27T13:15:17.732Z,5.83
2018-02-27T13:17:45.184Z,6.10
2018-02-27T13:20:12.661Z,5.83
2018-02-27T13:22:40.100Z,5.50
2018-02-27T13:25:07.564Z,3.53
2018-02-27T13:27:35.010Z,5.63
2018-02-27T13:30:02.490Z,6.40
2018-02-27T13:32:29.936Z,7.40
2018-02-27T13:34:57.398Z,5.63
2018-02-27T13:37:24.838Z,5.20
2018-02-27T13:39:52.256Z,8.57
2018-02-27T13:42:20.460Z,4.70
2018-02-27T13:44:47.937Z,4.83
2018-02-27T13:47:15.486Z,5.60
2018-02-27T13:49:42.901Z,5.03
2018-02-27T13:52:11.102Z,5.43
2018-02-27T13:54:38.520Z,6.40
2018-02-27T13:57:06.048Z,8.77
2018-02-27T13:59:33.598Z,6.73
2018-02-27T14:02:01.001Z,7.67
2018-02-27T14:04:29.237Z,5.73
2018-02-27T14:06:56.675Z,5.20
2018-02-27T14:09:24.137Z,6.40
2018-02-27T14:11:51.603Z,3.87
2018-02-27T14:14:19.052Z,3.50
2018-02-27T14:16:46.536Z,3.57
2018-02-27T14:19:13.958Z,4.73
2018-02-27T14:21:41.393Z,3.73
2018-02-27T14:24:09.598Z,4.83
2018-02-27T14:26:37.069Z,3.13
2018-02-27T14:29:04.509Z,2.30
2018-02-27T14:31:31.935Z,6.00
2018-02-27T14:34:00.156Z,4.67
2018-02-27T14:36:27.584Z,3.73
2018-02-27T14:38:55.002Z,2.77
2018-02-27T14:41:22.520Z,6.23
2018-02-27T14:43:50.075Z,5.13
2018-02-27T14:46:17.481Z,3.00
2018-02-27T14:48:45.666Z,3.37
2018-02-27T14:51:13.879Z,4.20
2018-02-27T14:53:41.345Z,5.70
2018-02-27T14:56:08.801Z,4.80
2018-02-27T14:58:36.262Z,4.57
2018-02-27T15:01:03.688Z,4.13
2018-02-27T15:03:31.115Z,3.53
2018-02-27T15:05:58.635Z,7.80
2018-02-27T15:08:26.082Z,5.83
2018-02-27T15:10:53.549Z,5.50
2018-02-27T15:13:20.991Z,4.73
2018-02-27T15:15:48.463Z,3.17
2018-02-27T15:18:16.868Z,4.90
2018-02-27T15:20:44.456Z,3.43
2018-02-27T15:23:11.888Z,5.53
2018-02-27T15:25:39.342Z,5.20
2018-02-27T15:28:06.771Z,3.20
2018-02-27T15:30:34.188Z,5.03
2018-02-27T15:33:03.149Z,7.10
2018-02-27T15:35:30.577Z,6.07
2018-02-27T15:37:58.004Z,6.83
2018-02-27T15:40:26.217Z,3.17
2018-02-27T15:42:53.641Z,6.40
2018-02-27T15:45:21.152Z,3.20
2018-02-27T15:47:48.609Z,5.77
2018-02-27T15:50:16.034Z,4.33
2018-02-27T15:52:43.506Z,3.97
2018-02-27T15:55:10.969Z,5.43
2018-02-27T15:57:38.392Z,4.97
2018-02-27T16:00:06.600Z,5.13
2018-02-27T16:02:34.042Z,5.20
2018-02-27T16:05:01.464Z,4.50
2018-02-27T16:07:29.649Z,6.53
2018-02-27T16:09:57.852Z,5.63
2018-02-27T16:12:25.280Z,13.53
2018-02-27T16:14:53.484Z,5.07
2018-02-27T16:17:20.957Z,10.20
2018-02-27T16:19:48.402Z,6.70
2018-02-27T16:22:15.821Z,5.63
2018-02-27T16:24:44.029Z,8.47
2018-02-27T16:27:11.454Z,11.37
2018-02-27T16:29:39.636Z,5.97
2018-02-27T16:32:07.956Z,5.73
2018-02-27T16:34:35.377Z,11.63
2018-02-27T16:37:02.880Z,9.73
2018-02-27T16:39:30.418Z,23.00
2018-02-27T16:41:57.884Z,15.60
2018-02-27T16:44:25.311Z,6.77
2018-02-27T16:46:52.801Z,12.37
2018-02-27T16:49:20.244Z,12.13
2018-02-27T16:51:47.661Z,6.40
2018-02-27T16:54:15.905Z,6.33
2018-02-27T16:56:43.326Z,5.57
2018-02-27T16:59:10.764Z,3.37
2018-02-27T17:01:39.001Z,4.77
2018-02-27T17:04:06.485Z,3.00
2018-02-27T17:06:34.736Z,5.57
2018-02-27T17:09:02.174Z,7.37
2018-02-27T17:11:29.629Z,3.80
2018-02-27T17:13:57.170Z,5.40
2018-02-27T17:16:24.628Z,4.03
2018-02-27T17:18:52.189Z,2.77
2018-02-27T17:21:19.609Z,5.80
2018-02-27T17:23:47.845Z,4.57
2018-02-27T17:26:15.274Z,5.33
2018-02-27T17:28:42.733Z,5.97
2018-02-27T17:31:10.190Z,6.00
2018-02-27T17:33:37.592Z,5.80
2018-02-27T17:36:05.022Z,8.37
2018-02-27T17:38:32.466Z,5.47
2018-02-27T17:40:59.929Z,8.10
2018-02-27T17:43:28.167Z,9.63
2018-02-27T17:45:56.382Z,10.17
2018-02-27T17:48:23.840Z,9.03
2018-02-27T17:50:51.289Z,18.00
2018-02-27T17:53:18.735Z,15.97
2018-02-27T17:55:46.197Z,11.17
2018-02-27T17:58:13.649Z,11.80
2018-02-27T18:00:41.094Z,12.67
2018-02-27T18:03:08.500Z,19.60
2018-02-27T18:05:36.725Z,19.43
2018-02-27T18:08:04.316Z,16.77
2018-02-27T18:10:31.735Z,13.53
2018-02-27T18:12:59.192Z,15.00
2018-02-27T18:15:26.614Z,11.23
2018-02-27T18:17:54.810Z,7.93
2018-02-27T18:20:22.237Z,7.07
2018-02-27T18:22:49.754Z,6.77
2018-02-27T18:25:17.173Z,9.93
2018-02-27T18:27:44.600Z,13.57
2018-02-27T18:30:12.144Z,12.17
2018-02-27T18:32:39.694Z,7.53
2018-02-27T18:35:07.121Z,8.13
2018-02-27T18:37:34.686Z,7.40
2018-02-27T18:40:02.104Z,12.57
2018-02-27T18:42:30.423Z,6.03
2018-02-27T18:44:57.838Z,9.00
2018-02-27T18:47:26.073Z,10.83
2018-02-27T18:49:53.513Z,12.43
2018-02-27T18:52:20.992Z,10.83
2018-02-27T18:54:48.424Z,10.00
2018-02-27T18:57:15.828Z,7.03
2018-02-27T18:59:43.357Z,9.03
2018-02-27T19:02:10.801Z,9.67
2018-02-27T19:04:38.234Z,8.50
2018-02-27T19:07:05.685Z,7.70
2018-02-27T19:09:33.877Z,21.70
2018-02-27T19:12:01.354Z,38.03
2018-02-27T19:14:28.800Z,26.57
2018-02-27T19:16:56.266Z,15.70
2018-02-27T19:19:23.712Z,9.73
2018-02-27T19:21:51.131Z,10.63
2018-02-27T19:24:19.365Z,9.30
2018-02-27T19:26:46.798Z,9.00
2018-02-27T19:29:14.273Z,9.63
2018-02-27T19:31:41.706Z,8.77
2018-02-27T19:34:09.129Z,9.73
2018-02-27T19:36:37.334Z,14.53
2018-02-27T19:39:04.812Z,8.57
2018-02-27T19:41:32.245Z,13.03
2018-02-27T19:43:59.696Z,7.87
2018-02-27T19:46:27.157Z,11.43
2018-02-27T19:48:55.364Z,9.23
2018-02-27T19:51:22.803Z,10.57
2018-02-27T19:53:50.261Z,9.33
2018-02-27T19:56:17.669Z,6.47
2018-02-27T19:58:45.103Z,8.13
2018-02-27T20:01:12.544Z,9.97
2018-02-27T20:03:39.993Z,14.30
2018-02-27T20:06:07.463Z,15.47
2018-02-27T20:08:34.933Z,16.43
2018-02-27T20:11:02.377Z,12.90
2018-02-27T20:13:29.815Z,11.37
2018-02-27T20:15:57.284Z,12.63
2018-02-27T20:18:24.834Z,9.80
2018-02-27T20:20:52.333Z,11.73
2018-02-27T20:23:25.378Z,12.73
2018-02-27T20:25:52.822Z,18.50
2018-02-27T20:28:25.881Z,20.77
2018-02-27T20:30:54.204Z,15.27
2018-02-27T20:33:21.767Z,22.07
2018-02-27T20:35:49.177Z,40.17
2018-02-27T20:41:16.277Z,24.00
2018-02-27T20:43:43.719Z,32.77
2018-02-27T20:46:12.017Z,26.37
2018-02-27T20:48:39.480Z,20.67
2018-02-27T20:51:06.929Z,16.70
2018-02-27T20:53:34.494Z,17.97
2018-02-27T20:56:01.904Z,16.70
2018-02-27T20:58:29.352Z,15.70
2018-02-27T21:00:56.814Z,21.07
2018-02-27T21:03:24.242Z,20.20
2018-02-27T21:05:51.789Z,14.90
2018-02-27T21:08:19.235Z,10.60
2018-02-27T21:10:46.705Z,15.43
2018-02-27T21:13:14.175Z,10.27
2018-02-27T21:15:41.584Z,8.17
2018-02-27T21:18:09.122Z,9.30
2018-02-27T21:20:36.500Z,11.83
2018-02-27T21:23:03.932Z,9.97
2018-02-27T21:25:31.469Z,13.73
2018-02-27T21:27:58.925Z,13.07
2018-02-27T21:30:26.532Z,11.80
2018-02-27T21:32:53.937Z,12.67
2018-02-27T21:35:21.482Z,9.33
2018-02-27T21:37:48.941Z,10.70
2018-02-27T21:40:16.405Z,9.13
2018-02-27T21:42:43.956Z,14.47
2018-02-27T21:45:11.515Z,11.97
2018-02-27T21:47:38.936Z,13.03
2018-02-27T21:50:07.264Z,10.87
2018-02-27T21:52:34.764Z,14.50
2018-02-27T21:55:02.157Z,13.93
2018-02-27T21:57:29.601Z,14.47
2018-02-27T21:59:57.036Z,12.20
2018-02-27T22:02:25.355Z,9.83
2018-02-27T22:04:52.790Z,12.07
2018-02-27T22:07:20.323Z,12.30
2018-02-27T22:09:47.876Z,13.73
2018-02-27T22:12:15.405Z,14.33
2018-02-27T22:14:42.877Z,19.87
2018-02-27T22:17:10.315Z,16.50
2018-02-27T22:19:37.781Z,15.67
2018-02-27T22:22:05.220Z,16.07
2018-02-27T22:24:32.649Z,17.33
2018-02-27T22:27:00.239Z,14.07
2018-02-27T22:29:27.689Z,15.67
2018-02-27T22:31:55.124Z,18.43
2018-02-27T22:34:22.612Z,12.13
2018-02-27T22:36:50.168Z,12.80
2018-02-27T22:39:19.684Z,15.13
2018-02-27T22:41:47.230Z,14.23
2018-02-27T22:44:14.648Z,11.93
2018-02-27T22:46:42.861Z,14.23
2018-02-27T22:49:10.280Z,11.73
2018-02-27T22:51:38.485Z,12.90
2018-02-27T22:54:05.915Z,11.47
2018-02-27T22:56:34.157Z,16.30
2018-02-27T22:59:01.568Z,17.10
2018-02-27T23:01:28.997Z,12.80
2018-02-27T23:03:57.216Z,13.10
2018-02-27T23:06:24.688Z,12.37
2018-02-27T23:08:52.141Z,20.23
2018-02-27T23:11:19.588Z,17.13
2018-02-27T23:13:47.059Z,16.83
2018-02-27T23:16:14.547Z,14.73
2018-02-27T23:18:41.993Z,17.00
2018-02-27T23:21:09.420Z,14.97
2018-02-27T23:23:36.970Z,13.03
2018-02-27T23:26:25.793Z,15.27
2018-02-27T23:28:55.997Z,14.77
2018-02-27T23:31:23.671Z,15.77
2018-02-27T23:33:56.159Z,16.43
2018-02-27T23:36:24.464Z,18.17
2018-02-27T23:38:51.888Z,19.83
2018-02-27T23:41:20.146Z,18.47
2018-02-27T23:43:47.674Z,18.93
2018-02-27T23:46:15.133Z,20.00
2018-02-27T23:48:42.681Z,19.23
2018-02-27T23:51:10.117Z,16.23
2018-02-27T23:53:37.550Z,17.13
2018-02-27T23:56:05.758Z,15.20
2018-02-27T23:58:33.219Z,16.97
